sensor_id;sensor_type;location;lat;lon;timestamp;P1;durP1;ratioP1;P2;durP2;ratioP2
65636;SDS011;52327;42.622;23.316;2022-12-29T00:01:37;6.38;;;3.95;;
65636;SDS011;52327;42.622;23.316;2022-12-29T00:04:03;6.53;;;3.92;;
65636;SDS011;52327;42.622;23.316;2022-12-29T00:06:30;5.72;;;3.65;;
65636;SDS011;52327;42.622;23.316;2022-12-29T00:08:56;5.95;;;3.78;;
65636;SDS011;52327;42.622;23.316;2022-12-29T00:11:25;7.65;;;4.53;;
65636;SDS011;52327;42.622;23.316;2022-12-29T00:13:53;8.98;;;5.43;;
65636;SDS011;52327;42.622;23.316;2022-12-29T00:16:39;7.82;;;4.18;;
65636;SDS011;52327;42.622;23.316;2022-12-29T00:19:06;5.45;;;4.07;;
65636;SDS011;52327;42.622;23.316;2022-12-29T00:21:52;5.78;;;2.83;;
65636;SDS011;52327;42.622;23.316;2022-12-29T00:24:36;4.70;;;2.90;;
65636;SDS011;52327;42.622;23.316;2022-12-29T00:27:19;3.15;;;2.13;;
65636;SDS011;52327;42.622;23.316;2022-12-29T00:30:14;4.72;;;3.30;;
65636;SDS011;52327;42.622;23.316;2022-12-29T00:35:55;4.38;;;3.10;;
65636;SDS011;52327;42.622;23.316;2022-12-29T00:38:26;4.57;;;3.40;;
65636;SDS011;52327;42.622;23.316;2022-12-29T00:41:12;3.97;;;2.53;;
65636;SDS011;52327;42.622;23.316;2022-12-29T00:43:56;3.33;;;2.47;;
65636;SDS011;52327;42.622;23.316;2022-12-29T00:46:34;6.40;;;5.63;;
65636;SDS011;52327;42.622;23.316;2022-12-29T00:49:04;7.57;;;5.75;;
65636;SDS011;52327;42.622;23.316;2022-12-29T00:51:49;6.53;;;3.70;;
65636;SDS011;52327;42.622;23.316;2022-12-29T00:54:15;7.28;;;4.75;;
65636;SDS011;52327;42.622;23.316;2022-12-29T00:56:42;7.95;;;5.50;;
65636;SDS011;52327;42.622;23.316;2022-12-29T00:59:09;9.32;;;5.47;;
65636;SDS011;52327;42.622;23.316;2022-12-29T01:01:36;6.40;;;3.72;;
65636;SDS011;52327;42.622;23.316;2022-12-29T01:04:04;5.20;;;3.65;;
65636;SDS011;52327;42.622;23.316;2022-12-29T01:06:33;6.65;;;5.30;;
65636;SDS011;52327;42.622;23.316;2022-12-29T01:09:01;4.72;;;3.50;;
65636;SDS011;52327;42.622;23.316;2022-12-29T01:11:46;7.93;;;3.17;;
65636;SDS011;52327;42.622;23.316;2022-12-29T01:14:11;3.80;;;3.28;;
65636;SDS011;52327;42.622;23.316;2022-12-29T01:16:37;12.25;;;4.95;;
65636;SDS011;52327;42.622;23.316;2022-12-29T01:19:03;8.45;;;4.78;;
65636;SDS011;52327;42.622;23.316;2022-12-29T01:21:29;7.30;;;5.97;;
65636;SDS011;52327;42.622;23.316;2022-12-29T01:23:54;11.35;;;6.03;;
65636;SDS011;52327;42.622;23.316;2022-12-29T01:26:20;9.00;;;5.60;;
65636;SDS011;52327;42.622;23.316;2022-12-29T01:28:45;7.75;;;5.85;;
65636;SDS011;52327;42.622;23.316;2022-12-29T01:31:12;5.93;;;3.67;;
65636;SDS011;52327;42.622;23.316;2022-12-29T01:33:39;7.63;;;3.83;;
65636;SDS011;52327;42.622;23.316;2022-12-29T01:36:06;12.85;;;5.45;;
65636;SDS011;52327;42.622;23.316;2022-12-29T01:38:34;9.30;;;4.70;;
65636;SDS011;52327;42.622;23.316;2022-12-29T01:41:00;14.60;;;6.80;;
65636;SDS011;52327;42.622;23.316;2022-12-29T01:43:38;6.10;;;4.90;;
65636;SDS011;52327;42.622;23.316;2022-12-29T01:46:04;7.28;;;4.75;;
65636;SDS011;52327;42.622;23.316;2022-12-29T01:48:32;8.35;;;6.28;;
65636;SDS011;52327;42.622;23.316;2022-12-29T01:50:57;9.40;;;4.90;;
65636;SDS011;52327;42.622;23.316;2022-12-29T01:53:25;11.18;;;6.35;;
65636;SDS011;52327;42.622;23.316;2022-12-29T01:55:55;7.28;;;5.13;;
65636;SDS011;52327;42.622;23.316;2022-12-29T01:58:27;9.02;;;4.75;;
65636;SDS011;52327;42.622;23.316;2022-12-29T02:00:56;12.90;;;6.18;;
65636;SDS011;52327;42.622;23.316;2022-12-29T02:03:21;6.72;;;4.72;;
65636;SDS011;52327;42.622;23.316;2022-12-29T02:08:29;7.78;;;4.80;;
65636;SDS011;52327;42.622;23.316;2022-12-29T02:10:58;15.15;;;8.30;;
65636;SDS011;52327;42.622;23.316;2022-12-29T02:13:25;14.85;;;7.93;;
65636;SDS011;52327;42.622;23.316;2022-12-29T02:15:54;9.13;;;5.85;;
65636;SDS011;52327;42.622;23.316;2022-12-29T02:24:36;7.03;;;4.10;;
65636;SDS011;52327;42.622;23.316;2022-12-29T02:32:45;8.18;;;5.38;;
65636;SDS011;52327;42.622;23.316;2022-12-29T02:40:52;6.38;;;5.35;;
65636;SDS011;52327;42.622;23.316;2022-12-29T02:46:04;8.18;;;5.47;;
65636;SDS011;52327;42.622;23.316;2022-12-29T02:51:18;13.43;;;8.70;;
65636;SDS011;52327;42.622;23.316;2022-12-29T02:53:46;10.68;;;6.28;;
65636;SDS011;52327;42.622;23.316;2022-12-29T02:56:30;9.30;;;6.63;;
65636;SDS011;52327;42.622;23.316;2022-12-29T02:58:56;13.73;;;7.72;;
65636;SDS011;52327;42.622;23.316;2022-12-29T03:01:24;11.77;;;6.97;;
65636;SDS011;52327;42.622;23.316;2022-12-29T03:07:34;9.27;;;5.32;;
65636;SDS011;52327;42.622;23.316;2022-12-29T03:10:30;10.13;;;5.72;;
65636;SDS011;52327;42.622;23.316;2022-12-29T03:13:19;11.00;;;7.65;;
65636;SDS011;52327;42.622;23.316;2022-12-29T03:19:21;10.93;;;5.70;;
65636;SDS011;52327;42.622;23.316;2022-12-29T03:22:01;11.43;;;7.30;;
65636;SDS011;52327;42.622;23.316;2022-12-29T03:24:50;9.70;;;7.25;;
65636;SDS011;52327;42.622;23.316;2022-12-29T03:27:19;12.50;;;6.65;;
65636;SDS011;52327;42.622;23.316;2022-12-29T03:29:50;11.63;;;6.70;;
65636;SDS011;52327;42.622;23.316;2022-12-29T03:32:21;8.20;;;6.18;;
65636;SDS011;52327;42.622;23.316;2022-12-29T03:34:49;11.27;;;8.15;;
65636;SDS011;52327;42.622;23.316;2022-12-29T03:37:17;14.75;;;7.13;;
65636;SDS011;52327;42.622;23.316;2022-12-29T03:39:46;12.18;;;6.45;;
65636;SDS011;52327;42.622;23.316;2022-12-29T03:42:16;8.00;;;5.75;;
65636;SDS011;52327;42.622;23.316;2022-12-29T03:44:44;9.63;;;6.22;;
65636;SDS011;52327;42.622;23.316;2022-12-29T03:47:11;10.45;;;5.88;;
65636;SDS011;52327;42.622;23.316;2022-12-29T03:49:38;8.48;;;5.25;;
65636;SDS011;52327;42.622;23.316;2022-12-29T03:52:03;8.13;;;6.32;;
65636;SDS011;52327;42.622;23.316;2022-12-29T03:54:30;6.55;;;4.65;;
65636;SDS011;52327;42.622;23.316;2022-12-29T03:56:56;9.38;;;6.20;;
65636;SDS011;52327;42.622;23.316;2022-12-29T03:59:22;6.40;;;5.70;;
65636;SDS011;52327;42.622;23.316;2022-12-29T04:01:47;8.88;;;5.70;;
65636;SDS011;52327;42.622;23.316;2022-12-29T04:04:12;8.40;;;5.55;;
65636;SDS011;52327;42.622;23.316;2022-12-29T04:06:38;8.30;;;3.85;;
65636;SDS011;52327;42.622;23.316;2022-12-29T04:09:03;10.68;;;5.43;;
65636;SDS011;52327;42.622;23.316;2022-12-29T04:11:29;6.25;;;4.45;;
65636;SDS011;52327;42.622;23.316;2022-12-29T04:13:54;9.45;;;5.68;;
65636;SDS011;52327;42.622;23.316;2022-12-29T04:16:20;7.00;;;4.60;;
65636;SDS011;52327;42.622;23.316;2022-12-29T04:18:45;7.93;;;4.43;;
65636;SDS011;52327;42.622;23.316;2022-12-29T04:21:10;7.72;;;4.78;;
65636;SDS011;52327;42.622;23.316;2022-12-29T04:23:37;4.20;;;2.78;;
65636;SDS011;52327;42.622;23.316;2022-12-29T04:26:03;4.97;;;3.10;;
65636;SDS011;52327;42.622;23.316;2022-12-29T04:28:31;4.03;;;3.67;;
65636;SDS011;52327;42.622;23.316;2022-12-29T04:30:57;5.07;;;3.25;;
65636;SDS011;52327;42.622;23.316;2022-12-29T04:33:23;9.13;;;4.55;;
65636;SDS011;52327;42.622;23.316;2022-12-29T04:35:49;7.28;;;2.85;;
65636;SDS011;52327;42.622;23.316;2022-12-29T04:38:14;5.63;;;4.00;;
65636;SDS011;52327;42.622;23.316;2022-12-29T04:40:41;6.40;;;3.78;;
65636;SDS011;52327;42.622;23.316;2022-12-29T04:43:07;9.23;;;4.35;;
65636;SDS011;52327;42.622;23.316;2022-12-29T04:45:33;6.47;;;4.05;;
65636;SDS011;52327;42.622;23.316;2022-12-29T04:47:59;5.30;;;4.80;;
65636;SDS011;52327;42.622;23.316;2022-12-29T04:50:24;9.00;;;5.38;;
65636;SDS011;52327;42.622;23.316;2022-12-29T04:52:50;8.63;;;5.07;;
65636;SDS011;52327;42.622;23.316;2022-12-29T04:55:15;6.75;;;4.20;;
65636;SDS011;52327;42.622;23.316;2022-12-29T04:57:40;10.38;;;5.65;;
65636;SDS011;52327;42.622;23.316;2022-12-29T05:00:06;6.55;;;4.95;;
65636;SDS011;52327;42.622;23.316;2022-12-29T05:02:34;7.57;;;4.15;;
65636;SDS011;52327;42.622;23.316;2022-12-29T05:04:59;9.43;;;5.55;;
65636;SDS011;52327;42.622;23.316;2022-12-29T05:07:25;8.82;;;3.90;;
65636;SDS011;52327;42.622;23.316;2022-12-29T05:09:53;6.30;;;4.97;;
65636;SDS011;52327;42.622;23.316;2022-12-29T05:12:19;7.18;;;6.25;;
65636;SDS011;52327;42.622;23.316;2022-12-29T05:14:44;8.57;;;5.60;;
65636;SDS011;52327;42.622;23.316;2022-12-29T05:20:31;5.60;;;4.45;;
65636;SDS011;52327;42.622;23.316;2022-12-29T05:22:57;9.80;;;6.18;;
65636;SDS011;52327;42.622;23.316;2022-12-29T05:25:22;14.23;;;7.20;;
65636;SDS011;52327;42.622;23.316;2022-12-29T05:27:47;9.18;;;4.88;;
65636;SDS011;52327;42.622;23.316;2022-12-29T05:30:13;7.85;;;4.55;;
65636;SDS011;52327;42.622;23.316;2022-12-29T05:32:38;10.15;;;7.10;;
65636;SDS011;52327;42.622;23.316;2022-12-29T05:35:04;8.57;;;7.15;;
65636;SDS011;52327;42.622;23.316;2022-12-29T05:37:30;7.03;;;5.93;;
65636;SDS011;52327;42.622;23.316;2022-12-29T05:39:55;9.73;;;5.70;;
65636;SDS011;52327;42.622;23.316;2022-12-29T05:42:20;11.88;;;6.18;;
65636;SDS011;52327;42.622;23.316;2022-12-29T05:44:46;10.68;;;6.43;;
65636;SDS011;52327;42.622;23.316;2022-12-29T05:47:11;8.95;;;5.32;;
65636;SDS011;52327;42.622;23.316;2022-12-29T05:49:36;6.88;;;4.25;;
65636;SDS011;52327;42.622;23.316;2022-12-29T05:55:11;9.32;;;5.35;;
65636;SDS011;52327;42.622;23.316;2022-12-29T05:57:36;7.78;;;6.22;;
65636;SDS011;52327;42.622;23.316;2022-12-29T06:00:03;11.90;;;6.40;;
65636;SDS011;52327;42.622;23.316;2022-12-29T06:02:30;12.50;;;7.28;;
65636;SDS011;52327;42.622;23.316;2022-12-29T06:04:55;12.00;;;6.72;;
65636;SDS011;52327;42.622;23.316;2022-12-29T06:07:21;11.80;;;7.82;;
65636;SDS011;52327;42.622;23.316;2022-12-29T06:09:46;8.35;;;5.82;;
65636;SDS011;52327;42.622;23.316;2022-12-29T06:12:12;12.30;;;7.40;;
65636;SDS011;52327;42.622;23.316;2022-12-29T06:14:37;12.23;;;6.95;;
65636;SDS011;52327;42.622;23.316;2022-12-29T06:17:02;10.82;;;6.65;;
65636;SDS011;52327;42.622;23.316;2022-12-29T06:19:28;10.13;;;5.88;;
65636;SDS011;52327;42.622;23.316;2022-12-29T06:21:53;7.28;;;5.95;;
65636;SDS011;52327;42.622;23.316;2022-12-29T06:24:19;9.23;;;5.07;;
65636;SDS011;52327;42.622;23.316;2022-12-29T06:26:45;10.10;;;6.78;;
65636;SDS011;52327;42.622;23.316;2022-12-29T06:29:11;5.95;;;4.82;;
65636;SDS011;52327;42.622;23.316;2022-12-29T06:31:38;6.80;;;6.20;;
65636;SDS011;52327;42.622;23.316;2022-12-29T06:34:05;9.77;;;6.85;;
65636;SDS011;52327;42.622;23.316;2022-12-29T06:36:31;12.55;;;8.35;;
65636;SDS011;52327;42.622;23.316;2022-12-29T06:38:56;10.23;;;6.82;;
65636;SDS011;52327;42.622;23.316;2022-12-29T06:41:21;12.27;;;7.50;;
65636;SDS011;52327;42.622;23.316;2022-12-29T06:43:47;12.07;;;6.78;;
65636;SDS011;52327;42.622;23.316;2022-12-29T06:46:13;13.23;;;8.55;;
65636;SDS011;52327;42.622;23.316;2022-12-29T06:48:38;13.90;;;8.80;;
65636;SDS011;52327;42.622;23.316;2022-12-29T06:51:03;12.32;;;7.07;;
65636;SDS011;52327;42.622;23.316;2022-12-29T06:53:29;8.82;;;6.78;;
65636;SDS011;52327;42.622;23.316;2022-12-29T06:55:54;16.67;;;9.75;;
65636;SDS011;52327;42.622;23.316;2022-12-29T06:58:21;15.60;;;8.52;;
65636;SDS011;52327;42.622;23.316;2022-12-29T07:00:47;14.50;;;9.90;;
65636;SDS011;52327;42.622;23.316;2022-12-29T07:03:13;12.77;;;8.90;;
65636;SDS011;52327;42.622;23.316;2022-12-29T07:05:38;10.57;;;8.48;;
65636;SDS011;52327;42.622;23.316;2022-12-29T07:08:04;15.43;;;9.30;;
65636;SDS011;52327;42.622;23.316;2022-12-29T07:26:37;19.17;;;9.43;;
65636;SDS011;52327;42.622;23.316;2022-12-29T07:29:03;14.93;;;9.90;;
65636;SDS011;52327;42.622;23.316;2022-12-29T07:31:29;15.20;;;9.55;;
65636;SDS011;52327;42.622;23.316;2022-12-29T07:33:55;10.77;;;8.35;;
65636;SDS011;52327;42.622;23.316;2022-12-29T07:36:20;9.82;;;7.20;;
65636;SDS011;52327;42.622;23.316;2022-12-29T07:38:46;13.23;;;7.22;;
65636;SDS011;52327;42.622;23.316;2022-12-29T07:41:11;15.63;;;10.07;;
65636;SDS011;52327;42.622;23.316;2022-12-29T07:43:37;12.88;;;7.40;;
65636;SDS011;52327;42.622;23.316;2022-12-29T07:46:02;10.85;;;6.70;;
65636;SDS011;52327;42.622;23.316;2022-12-29T07:48:28;10.32;;;7.68;;
65636;SDS011;52327;42.622;23.316;2022-12-29T07:50:53;9.45;;;6.95;;
65636;SDS011;52327;42.622;23.316;2022-12-29T07:53:19;14.40;;;7.78;;
65636;SDS011;52327;42.622;23.316;2022-12-29T07:55:44;12.82;;;7.18;;
65636;SDS011;52327;42.622;23.316;2022-12-29T07:58:10;13.25;;;7.25;;
65636;SDS011;52327;42.622;23.316;2022-12-29T08:00:35;15.88;;;8.30;;
65636;SDS011;52327;42.622;23.316;2022-12-29T08:03:03;10.70;;;7.22;;
65636;SDS011;52327;42.622;23.316;2022-12-29T08:05:29;11.63;;;7.93;;
65636;SDS011;52327;42.622;23.316;2022-12-29T08:07:55;8.23;;;6.72;;
65636;SDS011;52327;42.622;23.316;2022-12-29T08:10:21;25.80;;;15.00;;
65636;SDS011;52327;42.622;23.316;2022-12-29T08:12:47;9.02;;;5.65;;
65636;SDS011;52327;42.622;23.316;2022-12-29T08:15:12;19.55;;;9.95;;
65636;SDS011;52327;42.622;23.316;2022-12-29T08:17:38;11.18;;;8.27;;
65636;SDS011;52327;42.622;23.316;2022-12-29T08:20:03;11.70;;;8.27;;
65636;SDS011;52327;42.622;23.316;2022-12-29T08:22:29;11.50;;;6.43;;
65636;SDS011;52327;42.622;23.316;2022-12-29T08:24:55;11.18;;;6.72;;
65636;SDS011;52327;42.622;23.316;2022-12-29T08:27:20;9.57;;;5.75;;
65636;SDS011;52327;42.622;23.316;2022-12-29T08:29:46;9.35;;;7.18;;
65636;SDS011;52327;42.622;23.316;2022-12-29T08:32:12;11.00;;;8.98;;
65636;SDS011;52327;42.622;23.316;2022-12-29T08:34:37;11.88;;;7.43;;
65636;SDS011;52327;42.622;23.316;2022-12-29T08:37:03;13.70;;;7.80;;
65636;SDS011;52327;42.622;23.316;2022-12-29T08:39:28;19.20;;;8.95;;
65636;SDS011;52327;42.622;23.316;2022-12-29T08:41:56;12.30;;;8.75;;
65636;SDS011;52327;42.622;23.316;2022-12-29T08:44:30;10.13;;;6.82;;
65636;SDS011;52327;42.622;23.316;2022-12-29T08:46:55;15.20;;;9.75;;
65636;SDS011;52327;42.622;23.316;2022-12-29T08:49:21;12.35;;;8.07;;
65636;SDS011;52327;42.622;23.316;2022-12-29T08:51:46;14.82;;;10.00;;
65636;SDS011;52327;42.622;23.316;2022-12-29T08:54:12;13.27;;;8.30;;
65636;SDS011;52327;42.622;23.316;2022-12-29T08:56:37;15.75;;;9.70;;
65636;SDS011;52327;42.622;23.316;2022-12-29T08:59:03;11.40;;;8.57;;
65636;SDS011;52327;42.622;23.316;2022-12-29T09:01:28;11.45;;;7.95;;
65636;SDS011;52327;42.622;23.316;2022-12-29T09:03:55;14.23;;;8.75;;
65636;SDS011;52327;42.622;23.316;2022-12-29T09:06:21;11.82;;;8.35;;
65636;SDS011;52327;42.622;23.316;2022-12-29T09:08:46;10.57;;;8.25;;
65636;SDS011;52327;42.622;23.316;2022-12-29T09:11:16;13.07;;;8.60;;
65636;SDS011;52327;42.622;23.316;2022-12-29T09:13:47;13.82;;;8.57;;
65636;SDS011;52327;42.622;23.316;2022-12-29T09:16:13;12.60;;;8.25;;
65636;SDS011;52327;42.622;23.316;2022-12-29T09:18:40;11.60;;;7.05;;
65636;SDS011;52327;42.622;23.316;2022-12-29T09:21:06;11.82;;;8.27;;
65636;SDS011;52327;42.622;23.316;2022-12-29T09:23:32;9.05;;;6.70;;
65636;SDS011;52327;42.622;23.316;2022-12-29T09:25:59;13.93;;;8.27;;
65636;SDS011;52327;42.622;23.316;2022-12-29T09:28:24;11.48;;;7.72;;
65636;SDS011;52327;42.622;23.316;2022-12-29T09:30:50;13.90;;;7.75;;
65636;SDS011;52327;42.622;23.316;2022-12-29T09:33:16;14.48;;;9.50;;
65636;SDS011;52327;42.622;23.316;2022-12-29T09:35:42;11.77;;;7.40;;
65636;SDS011;52327;42.622;23.316;2022-12-29T09:38:09;12.90;;;8.20;;
65636;SDS011;52327;42.622;23.316;2022-12-29T09:40:35;16.55;;;8.48;;
65636;SDS011;52327;42.622;23.316;2022-12-29T09:45:45;10.73;;;7.43;;
65636;SDS011;52327;42.622;23.316;2022-12-29T09:48:29;10.38;;;7.00;;
65636;SDS011;52327;42.622;23.316;2022-12-29T09:50:59;11.20;;;8.23;;
65636;SDS011;52327;42.622;23.316;2022-12-29T09:56:19;12.70;;;8.68;;
65636;SDS011;52327;42.622;23.316;2022-12-29T10:03:59;11.75;;;9.10;;
65636;SDS011;52327;42.622;23.316;2022-12-29T10:06:44;11.20;;;7.68;;
65636;SDS011;52327;42.622;23.316;2022-12-29T10:12:47;13.68;;;7.22;;
65636;SDS011;52327;42.622;23.316;2022-12-29T10:15:38;12.23;;;8.45;;
65636;SDS011;52327;42.622;23.316;2022-12-29T10:21:01;12.85;;;7.88;;
65636;SDS011;52327;42.622;23.316;2022-12-29T10:23:50;14.57;;;8.40;;
65636;SDS011;52327;42.622;23.316;2022-12-29T10:26:19;14.10;;;10.10;;
65636;SDS011;52327;42.622;23.316;2022-12-29T10:28:49;14.85;;;8.52;;
65636;SDS011;52327;42.622;23.316;2022-12-29T10:31:23;9.00;;;8.05;;
65636;SDS011;52327;42.622;23.316;2022-12-29T10:33:55;11.90;;;8.18;;
65636;SDS011;52327;42.622;23.316;2022-12-29T10:36:35;15.25;;;7.93;;
65636;SDS011;52327;42.622;23.316;2022-12-29T10:39:16;11.80;;;9.00;;
65636;SDS011;52327;42.622;23.316;2022-12-29T10:44:46;15.48;;;9.57;;
65636;SDS011;52327;42.622;23.316;2022-12-29T10:47:16;16.83;;;10.07;;
65636;SDS011;52327;42.622;23.316;2022-12-29T10:49:47;17.08;;;8.23;;
65636;SDS011;52327;42.622;23.316;2022-12-29T10:52:14;15.82;;;10.48;;
65636;SDS011;52327;42.622;23.316;2022-12-29T10:58:06;11.07;;;8.85;;
65636;SDS011;52327;42.622;23.316;2022-12-29T11:00:37;12.75;;;9.18;;
65636;SDS011;52327;42.622;23.316;2022-12-29T11:03:09;12.80;;;8.02;;
65636;SDS011;52327;42.622;23.316;2022-12-29T11:08:19;13.90;;;9.98;;
65636;SDS011;52327;42.622;23.316;2022-12-29T11:10:46;20.42;;;9.90;;
65636;SDS011;52327;42.622;23.316;2022-12-29T11:15:56;11.75;;;7.13;;
65636;SDS011;52327;42.622;23.316;2022-12-29T11:18:25;12.68;;;8.73;;
65636;SDS011;52327;42.622;23.316;2022-12-29T11:20:53;11.70;;;6.13;;
65636;SDS011;52327;42.622;23.316;2022-12-29T11:23:21;12.63;;;7.93;;
65636;SDS011;52327;42.622;23.316;2022-12-29T11:28:38;14.27;;;8.55;;
65636;SDS011;52327;42.622;23.316;2022-12-29T11:31:05;14.65;;;9.45;;
65636;SDS011;52327;42.622;23.316;2022-12-29T11:33:33;12.77;;;8.25;;
65636;SDS011;52327;42.622;23.316;2022-12-29T11:36:20;15.40;;;10.32;;
65636;SDS011;52327;42.622;23.316;2022-12-29T11:38:49;11.70;;;8.30;;
65636;SDS011;52327;42.622;23.316;2022-12-29T11:41:20;10.93;;;6.93;;
65636;SDS011;52327;42.622;23.316;2022-12-29T11:43:48;13.52;;;8.35;;
65636;SDS011;52327;42.622;23.316;2022-12-29T11:46:16;11.85;;;8.73;;
65636;SDS011;52327;42.622;23.316;2022-12-29T11:48:43;12.43;;;7.25;;
65636;SDS011;52327;42.622;23.316;2022-12-29T11:51:10;13.55;;;8.30;;
65636;SDS011;52327;42.622;23.316;2022-12-29T11:56:12;13.25;;;8.70;;
65636;SDS011;52327;42.622;23.316;2022-12-29T11:58:40;17.13;;;8.50;;
65636;SDS011;52327;42.622;23.316;2022-12-29T12:03:58;11.45;;;8.75;;
65636;SDS011;52327;42.622;23.316;2022-12-29T12:06:45;11.27;;;7.47;;
65636;SDS011;52327;42.622;23.316;2022-12-29T12:09:19;17.00;;;8.98;;
65636;SDS011;52327;42.622;23.316;2022-12-29T12:12:04;12.40;;;7.40;;
65636;SDS011;52327;42.622;23.316;2022-12-29T12:14:38;12.70;;;9.20;;
65636;SDS011;52327;42.622;23.316;2022-12-29T12:17:16;13.15;;;7.25;;
65636;SDS011;52327;42.622;23.316;2022-12-29T12:19:53;11.25;;;7.07;;
65636;SDS011;52327;42.622;23.316;2022-12-29T12:27:48;12.32;;;7.65;;
65636;SDS011;52327;42.622;23.316;2022-12-29T12:30:18;10.82;;;8.20;;
65636;SDS011;52327;42.622;23.316;2022-12-29T13:00:50;8.73;;;5.57;;
65636;SDS011;52327;42.622;23.316;2022-12-29T13:11:55;9.80;;;7.32;;
65636;SDS011;52327;42.622;23.316;2022-12-29T13:17:13;7.38;;;5.97;;
65636;SDS011;52327;42.622;23.316;2022-12-29T13:30:29;6.45;;;5.60;;
65636;SDS011;52327;42.622;23.316;2022-12-29T13:33:13;12.00;;;6.10;;
65636;SDS011;52327;42.622;23.316;2022-12-29T13:40:57;7.85;;;4.57;;
65636;SDS011;52327;42.622;23.316;2022-12-29T13:43:27;11.05;;;5.63;;
65636;SDS011;52327;42.622;23.316;2022-12-29T13:45:57;14.00;;;6.45;;
65636;SDS011;52327;42.622;23.316;2022-12-29T13:48:39;5.38;;;4.35;;
65636;SDS011;52327;42.622;23.316;2022-12-29T13:51:09;7.82;;;5.30;;
65636;SDS011;52327;42.622;23.316;2022-12-29T13:53:49;6.70;;;5.55;;
65636;SDS011;52327;42.622;23.316;2022-12-29T13:59:26;6.03;;;3.88;;
65636;SDS011;52327;42.622;23.316;2022-12-29T14:02:15;9.32;;;5.45;;
65636;SDS011;52327;42.622;23.316;2022-12-29T14:04:55;6.60;;;4.10;;
65636;SDS011;52327;42.622;23.316;2022-12-29T14:07:22;12.35;;;5.65;;
65636;SDS011;52327;42.622;23.316;2022-12-29T14:09:48;7.40;;;4.75;;
65636;SDS011;52327;42.622;23.316;2022-12-29T14:15:01;6.50;;;4.47;;
65636;SDS011;52327;42.622;23.316;2022-12-29T14:17:39;9.80;;;5.68;;
65636;SDS011;52327;42.622;23.316;2022-12-29T14:20:06;12.73;;;6.45;;
65636;SDS011;52327;42.622;23.316;2022-12-29T14:22:59;8.60;;;5.40;;
65636;SDS011;52327;42.622;23.316;2022-12-29T14:28:29;15.10;;;8.82;;
65636;SDS011;52327;42.622;23.316;2022-12-29T14:30:57;9.02;;;6.32;;
65636;SDS011;52327;42.622;23.316;2022-12-29T14:33:25;6.57;;;4.85;;
65636;SDS011;52327;42.622;23.316;2022-12-29T14:35:53;7.38;;;4.68;;
65636;SDS011;52327;42.622;23.316;2022-12-29T14:38:21;14.38;;;4.38;;
65636;SDS011;52327;42.622;23.316;2022-12-29T14:40:51;24.20;;;5.20;;
65636;SDS011;52327;42.622;23.316;2022-12-29T14:43:21;5.78;;;4.30;;
65636;SDS011;52327;42.622;23.316;2022-12-29T14:45:57;11.07;;;4.88;;
65636;SDS011;52327;42.622;23.316;2022-12-29T14:50:57;5.55;;;3.38;;
65636;SDS011;52327;42.622;23.316;2022-12-29T14:56:16;4.32;;;3.90;;
65636;SDS011;52327;42.622;23.316;2022-12-29T15:01:17;13.18;;;7.78;;
65636;SDS011;52327;42.622;23.316;2022-12-29T15:04:05;10.88;;;5.70;;
65636;SDS011;52327;42.622;23.316;2022-12-29T15:06:51;8.50;;;5.60;;
65636;SDS011;52327;42.622;23.316;2022-12-29T15:09:28;9.63;;;4.88;;
65636;SDS011;52327;42.622;23.316;2022-12-29T15:17:30;10.23;;;5.95;;
65636;SDS011;52327;42.622;23.316;2022-12-29T15:19:58;8.35;;;5.05;;
65636;SDS011;52327;42.622;23.316;2022-12-29T15:22:25;6.10;;;4.80;;
65636;SDS011;52327;42.622;23.316;2022-12-29T15:24:52;7.82;;;4.13;;
65636;SDS011;52327;42.622;23.316;2022-12-29T15:27:21;6.22;;;4.28;;
65636;SDS011;52327;42.622;23.316;2022-12-29T15:29:48;4.43;;;3.10;;
65636;SDS011;52327;42.622;23.316;2022-12-29T15:32:22;4.45;;;3.22;;
65636;SDS011;52327;42.622;23.316;2022-12-29T15:34:53;6.28;;;5.32;;
65636;SDS011;52327;42.622;23.316;2022-12-29T15:37:25;3.95;;;3.13;;
65636;SDS011;52327;42.622;23.316;2022-12-29T15:39:53;7.63;;;4.65;;
65636;SDS011;52327;42.622;23.316;2022-12-29T15:45:11;5.90;;;3.78;;
65636;SDS011;52327;42.622;23.316;2022-12-29T15:47:38;11.32;;;5.00;;
65636;SDS011;52327;42.622;23.316;2022-12-29T15:50:14;6.95;;;4.97;;
65636;SDS011;52327;42.622;23.316;2022-12-29T15:53:00;7.05;;;4.65;;
65636;SDS011;52327;42.622;23.316;2022-12-29T15:58:01;12.80;;;6.53;;
65636;SDS011;52327;42.622;23.316;2022-12-29T16:00:31;8.88;;;5.97;;
65636;SDS011;52327;42.622;23.316;2022-12-29T16:03:02;5.03;;;3.55;;
65636;SDS011;52327;42.622;23.316;2022-12-29T16:05:36;5.57;;;3.88;;
65636;SDS011;52327;42.622;23.316;2022-12-29T16:08:15;6.60;;;3.20;;
65636;SDS011;52327;42.622;23.316;2022-12-29T16:10:49;6.68;;;3.13;;
65636;SDS011;52327;42.622;23.316;2022-12-29T16:13:19;7.57;;;3.65;;
65636;SDS011;52327;42.622;23.316;2022-12-29T16:15:52;2.88;;;2.58;;
65636;SDS011;52327;42.622;23.316;2022-12-29T16:18:24;6.13;;;3.67;;
65636;SDS011;52327;42.622;23.316;2022-12-29T16:20:59;4.85;;;3.50;;
65636;SDS011;52327;42.622;23.316;2022-12-29T16:23:26;4.03;;;2.75;;
65636;SDS011;52327;42.622;23.316;2022-12-29T16:25:54;5.43;;;3.30;;
65636;SDS011;52327;42.622;23.316;2022-12-29T16:28:28;4.18;;;2.67;;
65636;SDS011;52327;42.622;23.316;2022-12-29T16:31:04;9.10;;;3.17;;
65636;SDS011;52327;42.622;23.316;2022-12-29T16:33:38;6.03;;;3.08;;
65636;SDS011;52327;42.622;23.316;2022-12-29T16:39:08;6.32;;;3.72;;
65636;SDS011;52327;42.622;23.316;2022-12-29T16:41:46;3.47;;;2.67;;
65636;SDS011;52327;42.622;23.316;2022-12-29T16:44:21;5.30;;;3.55;;
65636;SDS011;52327;42.622;23.316;2022-12-29T16:47:05;7.43;;;3.08;;
65636;SDS011;52327;42.622;23.316;2022-12-29T16:49:46;3.92;;;3.30;;
65636;SDS011;52327;42.622;23.316;2022-12-29T16:52:20;2.92;;;2.13;;
65636;SDS011;52327;42.622;23.316;2022-12-29T16:54:54;4.95;;;3.33;;
65636;SDS011;52327;42.622;23.316;2022-12-29T16:57:26;5.43;;;3.47;;
65636;SDS011;52327;42.622;23.316;2022-12-29T16:59:55;4.13;;;2.72;;
65636;SDS011;52327;42.622;23.316;2022-12-29T17:02:23;7.00;;;3.42;;
65636;SDS011;52327;42.622;23.316;2022-12-29T17:04:52;3.20;;;2.08;;
65636;SDS011;52327;42.622;23.316;2022-12-29T17:07:21;3.45;;;2.70;;
65636;SDS011;52327;42.622;23.316;2022-12-29T17:09:48;5.18;;;2.78;;
65636;SDS011;52327;42.622;23.316;2022-12-29T17:12:26;3.63;;;2.75;;
65636;SDS011;52327;42.622;23.316;2022-12-29T17:14:54;5.78;;;3.00;;
65636;SDS011;52327;42.622;23.316;2022-12-29T17:17:41;5.13;;;2.80;;
65636;SDS011;52327;42.622;23.316;2022-12-29T17:20:16;3.70;;;2.33;;
65636;SDS011;52327;42.622;23.316;2022-12-29T17:22:49;6.05;;;3.28;;
65636;SDS011;52327;42.622;23.316;2022-12-29T17:25:19;4.05;;;2.35;;
65636;SDS011;52327;42.622;23.316;2022-12-29T17:27:50;6.47;;;3.08;;
65636;SDS011;52327;42.622;23.316;2022-12-29T17:30:21;6.38;;;3.72;;
65636;SDS011;52327;42.622;23.316;2022-12-29T17:32:50;6.85;;;2.85;;
65636;SDS011;52327;42.622;23.316;2022-12-29T17:35:18;11.27;;;4.37;;
65636;SDS011;52327;42.622;23.316;2022-12-29T17:37:45;5.05;;;2.83;;
65636;SDS011;52327;42.622;23.316;2022-12-29T17:40:15;3.17;;;1.95;;
65636;SDS011;52327;42.622;23.316;2022-12-29T17:42:51;3.65;;;1.63;;
65636;SDS011;52327;42.622;23.316;2022-12-29T17:45:23;9.23;;;3.97;;
65636;SDS011;52327;42.622;23.316;2022-12-29T17:47:51;6.72;;;2.80;;
65636;SDS011;52327;42.622;23.316;2022-12-29T17:50:20;3.40;;;2.38;;